createdAt,value
2018-10-06T00:00:22.462Z,26.70
2018-10-06T00:02:51.273Z,32.53
2018-10-06T00:05:21.262Z,28.47
2018-10-06T00:07:50.689Z,27.10
2018-10-06T00:10:19.890Z,27.80
2018-10-06T00:12:49.010Z,28.20
2018-10-06T00:15:18.546Z,27.63
2018-10-06T00:17:47.690Z,25.13
2018-10-06T00:20:16.829Z,26.33
2018-10-06T00:22:45.971Z,28.87
2018-10-06T00:25:15.094Z,25.37
2018-10-06T00:27:44.782Z,37.43
2018-10-06T00:30:13.982Z,25.07
2018-10-06T00:32:43.152Z,24.67
2018-10-06T00:35:12.289Z,27.10
2018-10-06T00:37:41.818Z,28.07
2018-10-06T00:40:11.555Z,27.60
2018-10-06T00:42:41.227Z,27.40
2018-10-06T00:45:10.870Z,27.80
2018-10-06T00:47:40.114Z,25.77
2018-10-06T00:50:09.234Z,28.23
2018-10-06T00:52:39.178Z,28.07
2018-10-06T00:55:15.327Z,24.73
2018-10-06T00:57:44.434Z,26.97
2018-10-06T01:00:13.574Z,25.77
2018-10-06T01:02:42.938Z,21.53
2018-10-06T01:05:13.007Z,27.40
2018-10-06T01:07:42.165Z,24.50
2018-10-06T01:10:12.214Z,34.93
2018-10-06T01:12:41.461Z,21.50
2018-10-06T01:15:10.648Z,28.80
2018-10-06T01:17:39.956Z,29.37
2018-10-06T01:20:09.366Z,29.13
2018-10-06T01:22:38.968Z,27.33
2018-10-06T01:25:08.454Z,28.60
2018-10-06T01:27:37.778Z,26.20
2018-10-06T01:30:07.269Z,23.93
2018-10-06T01:32:36.417Z,35.27
2018-10-06T01:35:05.704Z,27.53
2018-10-06T01:37:35.133Z,22.47
2018-10-06T01:40:04.282Z,21.30
2018-10-06T01:42:33.429Z,22.77
2018-10-06T01:45:02.993Z,22.23
2018-10-06T01:47:33.183Z,18.13
2018-10-06T01:50:02.457Z,22.37
2018-10-06T01:52:31.502Z,21.73
2018-10-06T01:55:00.630Z,19.97
2018-10-06T01:57:29.793Z,23.60
2018-10-06T02:00:01.171Z,24.43
2018-10-06T02:02:30.473Z,27.40
2018-10-06T02:04:59.773Z,25.20
2018-10-06T02:07:29.065Z,23.87
2018-10-06T02:09:58.327Z,24.30
2018-10-06T02:12:27.650Z,21.43
2018-10-06T02:14:57.390Z,19.30
2018-10-06T02:17:27.655Z,19.43
2018-10-06T02:19:57.041Z,22.37
2018-10-06T02:22:26.275Z,20.03
2018-10-06T02:24:56.080Z,23.37
2018-10-06T02:27:25.945Z,29.10
2018-10-06T02:29:55.175Z,23.47
2018-10-06T02:32:24.515Z,23.90
2018-10-06T02:34:53.761Z,21.10
2018-10-06T02:37:23.217Z,23.63
2018-10-06T02:39:52.449Z,24.63
2018-10-06T02:42:22.069Z,20.30
2018-10-06T02:44:51.334Z,23.27
2018-10-06T02:47:20.635Z,19.03
2018-10-06T02:49:51.274Z,21.57
2018-10-06T02:52:20.537Z,25.47
2018-10-06T02:54:49.730Z,25.90
2018-10-06T02:57:18.960Z,26.73
2018-10-06T02:59:48.134Z,24.57
2018-10-06T03:02:17.342Z,23.90
2018-10-06T03:04:46.513Z,31.00
2018-10-06T03:07:15.790Z,30.70
2018-10-06T03:09:45.427Z,27.87
2018-10-06T03:12:14.917Z,24.33
2018-10-06T03:14:44.235Z,32.97
2018-10-06T03:17:13.182Z,32.33
2018-10-06T03:19:42.863Z,31.10
2018-10-06T03:22:12.495Z,29.10
2018-10-06T03:24:41.677Z,29.13
2018-10-06T03:27:11.133Z,31.67
2018-10-06T03:29:40.267Z,31.00
2018-10-06T03:32:09.383Z,28.00
2018-10-06T03:34:38.494Z,32.90
2018-10-06T03:37:07.611Z,29.47
2018-10-06T03:39:36.793Z,32.23
2018-10-06T03:42:06.295Z,22.53
2018-10-06T03:44:35.386Z,26.97
2018-10-06T03:47:04.586Z,26.13
2018-10-06T03:49:33.669Z,27.10
2018-10-06T03:52:02.767Z,23.57
2018-10-06T03:54:32.601Z,27.53
2018-10-06T03:57:01.702Z,31.10
2018-10-06T03:59:30.786Z,42.57
2018-10-06T04:01:59.890Z,26.37
2018-10-06T04:04:29.014Z,29.90
2018-10-06T04:06:58.122Z,24.30
2018-10-06T04:09:27.226Z,30.43
2018-10-06T04:11:57.171Z,30.87
2018-10-06T04:14:26.537Z,27.40
2018-10-06T04:16:55.721Z,30.63
2018-10-06T04:19:24.642Z,28.13
2018-10-06T04:21:53.796Z,32.70
2018-10-06T04:24:22.909Z,26.30
2018-10-06T04:26:51.993Z,34.37
2018-10-06T04:29:21.118Z,33.97
2018-10-06T04:31:51.544Z,35.47
2018-10-06T04:34:20.658Z,35.87
2018-10-06T04:36:49.756Z,46.47
2018-10-06T04:39:18.869Z,41.80
2018-10-06T04:41:48.025Z,32.23
2018-10-06T04:44:17.150Z,45.90
2018-10-06T04:46:46.890Z,34.13
2018-10-06T04:49:16.002Z,33.30
2018-10-06T04:51:45.166Z,41.83
2018-10-06T04:54:14.831Z,37.00
2018-10-06T04:56:44.058Z,35.70
2018-10-06T04:59:13.318Z,34.03
2018-10-06T05:01:43.134Z,42.50
2018-10-06T05:04:12.814Z,44.93
2018-10-06T05:06:41.897Z,42.87
2018-10-06T05:09:11.006Z,41.43
2018-10-06T05:11:40.114Z,46.70
2018-10-06T05:14:09.230Z,40.83
2018-10-06T05:16:38.367Z,51.73
2018-10-06T05:19:07.623Z,49.80
2018-10-06T05:21:36.811Z,41.13
2018-10-06T05:24:06.044Z,58.87
2018-10-06T05:26:34.775Z,59.67
2018-10-06T05:29:04.119Z,60.30
2018-10-06T05:31:33.331Z,47.60
2018-10-06T05:34:02.497Z,54.80
2018-10-06T05:36:31.587Z,54.63
2018-10-06T05:39:01.232Z,60.37
2018-10-06T05:41:30.332Z,50.40
2018-10-06T05:43:59.475Z,55.70
2018-10-06T05:46:28.629Z,53.70
2018-10-06T05:48:58.158Z,48.47
2018-10-06T05:51:27.288Z,42.67
2018-10-06T05:53:56.506Z,66.13
2018-10-06T05:56:25.638Z,48.77
2018-10-06T05:58:55.605Z,46.83
2018-10-06T06:01:24.711Z,46.47
2018-10-06T06:03:53.834Z,50.67
2018-10-06T06:06:22.934Z,40.87
2018-10-06T06:08:52.035Z,48.23
2018-10-06T06:11:21.491Z,42.87
2018-10-06T06:13:50.658Z,45.10
2018-10-06T06:16:20.203Z,47.10
2018-10-06T06:18:50.079Z,33.03
2018-10-06T06:21:19.643Z,31.17
2018-10-06T06:23:48.829Z,36.83
2018-10-06T06:26:17.911Z,31.70
2018-10-06T06:28:47.725Z,26.53
2018-10-06T06:31:16.891Z,19.50
2018-10-06T06:33:46.070Z,20.53
2018-10-06T06:36:15.228Z,18.57
2018-10-06T06:38:44.638Z,17.40
2018-10-06T06:41:15.165Z,20.53
2018-10-06T06:43:44.299Z,14.30
2018-10-06T06:46:13.375Z,12.70
2018-10-06T06:48:42.508Z,12.10
2018-10-06T06:51:11.655Z,20.10
2018-10-06T06:53:40.794Z,13.67
2018-10-06T06:56:10.386Z,11.57
2018-10-06T06:58:40.162Z,13.53
2018-10-06T07:01:09.471Z,16.03
2018-10-06T07:03:38.639Z,16.53
2018-10-06T07:06:07.776Z,11.00
2018-10-06T07:08:36.929Z,27.60
2018-10-06T07:11:06.039Z,15.33
2018-10-06T07:13:35.206Z,14.67
2018-10-06T07:16:04.976Z,18.23
2018-10-06T07:18:35.692Z,13.93
2018-10-06T07:21:04.999Z,12.77
2018-10-06T07:23:34.530Z,13.30
2018-10-06T07:26:03.803Z,13.63
2018-10-06T07:28:32.944Z,11.87
2018-10-06T07:31:02.027Z,14.63
2018-10-06T07:33:31.129Z,18.43
2018-10-06T07:36:00.255Z,15.77
2018-10-06T07:38:30.055Z,19.63
2018-10-06T07:40:59.154Z,12.90
2018-10-06T07:43:28.337Z,13.87
2018-10-06T07:45:57.466Z,14.27
2018-10-06T07:48:26.566Z,13.53
2018-10-06T07:50:56.567Z,17.03
2018-10-06T07:53:25.712Z,15.83
2018-10-06T07:55:54.831Z,21.87
2018-10-06T07:58:24.094Z,19.40
2018-10-06T08:00:53.225Z,14.40
2018-10-06T08:03:22.377Z,16.30
2018-10-06T08:05:51.768Z,19.13
2018-10-06T08:08:21.758Z,13.17
2018-10-06T08:10:51.013Z,21.27
2018-10-06T08:13:20.748Z,13.03
2018-10-06T08:15:49.979Z,16.10
2018-10-06T08:18:18.865Z,13.03
2018-10-06T08:20:48.109Z,15.33
2018-10-06T08:23:18.002Z,12.67
2018-10-06T08:25:47.897Z,11.50
2018-10-06T08:28:17.785Z,12.03
2018-10-06T08:30:47.759Z,14.20
2018-10-06T08:33:17.155Z,13.30
2018-10-06T08:35:46.685Z,12.43
2018-10-06T08:38:16.131Z,11.10
2018-10-06T08:40:45.098Z,17.57
2018-10-06T08:43:14.841Z,14.77
2018-10-06T08:45:43.951Z,15.90
2018-10-06T08:48:13.342Z,15.07
2018-10-06T08:50:42.858Z,16.93
2018-10-06T08:53:12.098Z,14.93
2018-10-06T08:55:42.344Z,16.70
2018-10-06T08:58:11.700Z,17.43
2018-10-06T09:00:40.458Z,20.27
2018-10-06T09:03:10.052Z,13.80
2018-10-06T09:05:40.446Z,11.93
2018-10-06T09:08:09.730Z,13.87
2018-10-06T09:10:38.948Z,12.17
2018-10-06T09:13:08.234Z,11.70
2018-10-06T09:15:37.557Z,12.20
2018-10-06T09:18:07.346Z,12.80
2018-10-06T09:20:36.446Z,13.90
2018-10-06T09:23:05.658Z,15.60
2018-10-06T09:25:34.862Z,15.53
2018-10-06T09:28:04.029Z,15.30
2018-10-06T09:30:33.143Z,17.07
2018-10-06T09:33:02.430Z,14.00
2018-10-06T09:35:31.565Z,17.40
2018-10-06T09:38:00.694Z,14.70
2018-10-06T09:40:29.838Z,13.40
2018-10-06T09:42:58.998Z,14.20
2018-10-06T09:45:28.273Z,22.20
2018-10-06T09:47:58.393Z,14.87
2018-10-06T09:50:27.442Z,13.00
2018-10-06T09:52:56.255Z,13.43
2018-10-06T09:55:25.867Z,16.00
2018-10-06T09:57:55.045Z,12.83
2018-10-06T10:00:31.043Z,15.67
2018-10-06T10:03:05.456Z,10.90
2018-10-06T10:05:39.893Z,20.17
2018-10-06T10:08:09.647Z,11.47
2018-10-06T10:10:41.161Z,11.37
2018-10-06T10:13:10.606Z,13.73
2018-10-06T10:15:41.322Z,15.40
2018-10-06T10:18:11.036Z,13.27
2018-10-06T10:20:40.136Z,10.77
2018-10-06T10:23:09.972Z,17.03
2018-10-06T10:25:39.462Z,9.57
2018-10-06T10:28:08.566Z,13.73
2018-10-06T10:30:37.866Z,11.47
2018-10-06T10:33:07.578Z,12.30
2018-10-06T10:35:37.653Z,11.40
2018-10-06T10:38:07.691Z,9.50
2018-10-06T10:40:38.402Z,9.37
2018-10-06T10:43:08.342Z,13.50
2018-10-06T10:45:37.094Z,19.20
2018-10-06T10:48:06.861Z,14.40
2018-10-06T10:50:36.077Z,12.07
2018-10-06T10:53:05.401Z,11.33
2018-10-06T10:55:34.655Z,10.73
2018-10-06T10:58:05.258Z,14.60
2018-10-06T11:00:34.513Z,13.43
2018-10-06T11:03:03.575Z,15.63
2018-10-06T11:05:33.237Z,12.90
2018-10-06T11:08:02.375Z,10.80
2018-10-06T11:10:31.597Z,11.07
2018-10-06T11:13:00.712Z,10.27
2018-10-06T11:15:30.679Z,9.53
2018-10-06T11:18:00.534Z,11.60
2018-10-06T11:20:31.025Z,9.73
2018-10-06T11:23:01.639Z,8.80
2018-10-06T11:25:30.754Z,12.13
2018-10-06T11:27:59.878Z,10.13
2018-10-06T11:30:29.198Z,9.40
2018-10-06T11:32:58.271Z,8.53
2018-10-06T11:35:27.427Z,8.43
2018-10-06T11:37:56.611Z,6.77
2018-10-06T11:40:25.656Z,7.83
2018-10-06T11:42:54.754Z,10.37
2018-10-06T11:45:24.110Z,6.70
2018-10-06T11:47:53.214Z,6.07
2018-10-06T11:50:22.867Z,8.00
2018-10-06T11:52:51.943Z,6.37
2018-10-06T11:55:21.062Z,7.07
2018-10-06T11:57:50.371Z,8.97
2018-10-06T12:00:19.598Z,7.40
2018-10-06T12:02:48.598Z,7.27
2018-10-06T12:05:17.767Z,19.47
2018-10-06T12:07:46.862Z,8.70
2018-10-06T12:10:16.334Z,6.13
2018-10-06T12:12:45.482Z,9.13
2018-10-06T12:15:16.235Z,8.80
2018-10-06T12:17:45.392Z,11.07
2018-10-06T12:20:14.507Z,6.93
2018-10-06T12:22:43.653Z,6.33
2018-10-06T12:25:13.370Z,6.37
2018-10-06T12:27:43.206Z,5.53
2018-10-06T12:30:11.951Z,6.20
2018-10-06T12:32:41.318Z,9.73
2018-10-06T12:35:10.498Z,5.93
2018-10-06T12:37:39.543Z,4.90
2018-10-06T12:40:08.662Z,9.73
2018-10-06T12:42:37.837Z,11.37
2018-10-06T12:45:07.344Z,5.47
2018-10-06T12:47:36.433Z,8.10
2018-10-06T12:50:05.990Z,6.90
2018-10-06T12:52:35.117Z,6.33
2018-10-06T12:55:07.493Z,6.63
2018-10-06T12:57:36.586Z,8.37
2018-10-06T13:00:06.193Z,7.10
2018-10-06T13:02:35.841Z,9.73
2018-10-06T13:05:04.975Z,10.03
2018-10-06T13:07:34.092Z,7.13
2018-10-06T13:10:03.307Z,13.43
2018-10-06T13:12:32.456Z,5.10
2018-10-06T13:15:01.594Z,5.33
2018-10-06T13:17:31.310Z,7.10
2018-10-06T13:20:00.968Z,5.03
2018-10-06T13:22:30.056Z,6.77
2018-10-06T13:24:59.171Z,6.37
2018-10-06T13:27:28.266Z,6.67
2018-10-06T13:29:57.398Z,7.27
2018-10-06T13:32:26.675Z,6.70
2018-10-06T13:34:56.314Z,6.97
2018-10-06T13:37:25.522Z,8.70
2018-10-06T13:39:54.790Z,7.17
2018-10-06T13:42:23.902Z,5.30
2018-10-06T13:44:53.027Z,7.13
2018-10-06T13:47:22.118Z,7.60
2018-10-06T13:49:51.218Z,8.60
2018-10-06T13:52:20.313Z,9.30
2018-10-06T13:54:49.560Z,9.33
2018-10-06T13:57:19.090Z,11.00
2018-10-06T13:59:49.762Z,6.07
2018-10-06T14:02:18.838Z,5.90
2018-10-06T14:04:47.925Z,6.60
2018-10-06T14:07:17.842Z,12.30
2018-10-06T14:09:46.942Z,9.87
2018-10-06T14:12:16.199Z,5.90
2018-10-06T14:14:46.043Z,7.30
2018-10-06T14:17:15.646Z,8.50
2018-10-06T14:19:45.030Z,7.90
2018-10-06T14:22:13.811Z,7.60
2018-10-06T14:24:43.001Z,5.67
2018-10-06T14:27:12.103Z,8.40
2018-10-06T14:29:41.656Z,8.40
2018-10-06T14:32:10.866Z,6.57
2018-10-06T14:34:40.538Z,6.03
2018-10-06T14:37:10.700Z,7.17
2018-10-06T14:39:39.929Z,6.73
2018-10-06T14:42:09.054Z,9.77
2018-10-06T14:44:38.318Z,5.97
2018-10-06T14:47:07.585Z,14.03
2018-10-06T14:49:36.615Z,8.43
2018-10-06T14:52:05.966Z,6.20
2018-10-06T14:54:35.693Z,6.90
2018-10-06T14:57:05.137Z,7.47
2018-10-06T14:59:35.546Z,9.20
2018-10-06T15:02:04.955Z,8.53
2018-10-06T15:04:34.422Z,6.60
2018-10-06T15:07:03.566Z,6.97
2018-10-06T15:09:32.908Z,5.50
2018-10-06T15:12:02.499Z,5.40
2018-10-06T15:14:31.578Z,8.70
2018-10-06T15:17:01.579Z,12.73
2018-10-06T15:19:30.674Z,6.20
2018-10-06T15:21:59.864Z,6.53
2018-10-06T15:24:30.478Z,6.73
2018-10-06T15:26:59.794Z,6.63
2018-10-06T15:29:28.978Z,12.00
2018-10-06T15:31:59.914Z,9.80
2018-10-06T15:34:28.784Z,7.57
2018-10-06T15:36:58.490Z,7.17
2018-10-06T15:39:28.837Z,6.03
2018-10-06T15:41:58.278Z,6.43
2018-10-06T15:44:28.254Z,6.60
2018-10-06T15:46:57.767Z,5.43
2018-10-06T15:49:27.698Z,9.37
2018-10-06T15:51:56.610Z,9.83
2018-10-06T15:54:25.791Z,5.93
2018-10-06T15:56:55.290Z,8.23
2018-10-06T15:59:24.861Z,9.30
2018-10-06T16:01:53.566Z,13.93
2018-10-06T16:04:24.062Z,16.73
2018-10-06T16:06:53.507Z,16.17
2018-10-06T16:09:22.667Z,13.17
2018-10-06T16:11:51.817Z,20.20
2018-10-06T16:14:21.363Z,11.53
2018-10-06T16:16:50.495Z,21.70
2018-10-06T16:19:19.594Z,11.90
2018-10-06T16:21:48.683Z,11.00
2018-10-06T16:24:17.794Z,14.93
2018-10-06T16:26:47.696Z,11.27
2018-10-06T16:29:17.082Z,14.40
2018-10-06T16:31:46.734Z,13.93
2018-10-06T16:34:18.299Z,13.27
2018-10-06T16:36:48.144Z,24.07
2018-10-06T16:39:19.779Z,26.93
2018-10-06T16:41:48.886Z,19.57
2018-10-06T16:44:17.988Z,18.57
2018-10-06T16:46:47.874Z,13.80
2018-10-06T16:49:17.922Z,14.77
2018-10-06T16:51:48.148Z,11.37
2018-10-06T16:54:17.401Z,12.20
2018-10-06T16:56:46.218Z,9.73
2018-10-06T16:59:15.782Z,9.23
2018-10-06T17:01:47.596Z,12.67
2018-10-06T17:04:18.603Z,17.33
2018-10-06T17:06:48.010Z,11.20
2018-10-06T17:09:21.737Z,12.00
2018-10-06T17:11:51.939Z,11.10
2018-10-06T17:14:23.483Z,14.30
2018-10-06T17:16:52.583Z,19.27
2018-10-06T17:19:22.482Z,18.60
2018-10-06T17:21:51.646Z,9.00
2018-10-06T17:24:21.553Z,9.77
2018-10-06T17:26:50.600Z,13.57
2018-10-06T17:29:19.946Z,11.00
2018-10-06T17:31:52.286Z,9.67
2018-10-06T17:34:21.450Z,13.63
2018-10-06T17:36:51.086Z,12.50
2018-10-06T17:39:20.290Z,11.10
2018-10-06T17:41:50.086Z,12.83
2018-10-06T17:44:19.267Z,16.17
2018-10-06T17:46:49.886Z,13.17
2018-10-06T17:49:18.846Z,17.97
2018-10-06T17:51:48.018Z,16.83
2018-10-06T17:54:17.774Z,26.83
2018-10-06T17:56:47.113Z,14.20
2018-10-06T17:59:16.220Z,20.13
2018-10-06T18:01:45.616Z,20.70
2018-10-06T18:04:15.410Z,12.27
2018-10-06T18:06:44.911Z,16.03
2018-10-06T18:09:21.082Z,12.77
2018-10-06T18:11:51.490Z,14.13
2018-10-06T18:14:20.899Z,17.57
2018-10-06T18:16:50.452Z,12.80
2018-10-06T18:19:19.583Z,24.20
2018-10-06T18:21:48.691Z,28.23
2018-10-06T18:24:17.805Z,18.03
2018-10-06T18:26:49.905Z,14.87
2018-10-06T18:29:19.515Z,16.53
2018-10-06T18:31:48.840Z,20.73
2018-10-06T18:34:18.363Z,16.10
2018-10-06T18:36:47.715Z,21.50
2018-10-06T18:39:16.863Z,18.00
2018-10-06T18:41:46.166Z,17.57
2018-10-06T18:44:15.453Z,15.13
2018-10-06T18:46:46.231Z,15.07
2018-10-06T18:49:15.487Z,17.37
2018-10-06T18:51:44.713Z,16.60
2018-10-06T18:54:14.451Z,14.90
2018-10-06T18:56:43.702Z,12.70
2018-10-06T18:59:13.399Z,19.73
2018-10-06T19:01:42.897Z,15.27
2018-10-06T19:04:12.552Z,16.50
2018-10-06T19:06:41.694Z,14.70
2018-10-06T19:09:11.061Z,20.23
2018-10-06T19:11:40.510Z,16.90
2018-10-06T19:14:12.106Z,17.70
2018-10-06T19:16:41.337Z,15.77
2018-10-06T19:19:11.107Z,18.97
2018-10-06T19:21:40.394Z,19.87
2018-10-06T19:24:10.071Z,16.77
2018-10-06T19:26:39.411Z,16.43
2018-10-06T19:29:09.134Z,22.93
2018-10-06T19:31:38.999Z,17.10
2018-10-06T19:34:08.208Z,23.67
2018-10-06T19:36:37.466Z,18.17
2018-10-06T19:39:08.125Z,15.47
2018-10-06T19:41:38.191Z,20.33
2018-10-06T19:44:07.443Z,14.03
2018-10-06T19:46:37.050Z,14.83
2018-10-06T19:49:06.396Z,16.00
2018-10-06T19:51:35.949Z,15.83
2018-10-06T19:54:05.667Z,17.00
2018-10-06T19:56:34.799Z,15.60
2018-10-06T19:59:03.892Z,15.37
2018-10-06T20:01:33.040Z,16.13
2018-10-06T20:04:02.203Z,14.07
2018-10-06T20:06:31.482Z,17.43
2018-10-06T20:09:00.691Z,17.53
2018-10-06T20:11:29.695Z,16.53
2018-10-06T20:14:00.926Z,19.17
2018-10-06T20:16:30.086Z,20.47
2018-10-06T20:18:59.230Z,18.20
2018-10-06T20:21:29.750Z,19.27
2018-10-06T20:23:58.982Z,21.17
2018-10-06T20:26:28.195Z,19.80
2018-10-06T20:28:59.142Z,16.10
2018-10-06T20:31:29.536Z,16.97
2018-10-06T20:33:58.672Z,16.10
2018-10-06T20:36:27.762Z,16.53
2018-10-06T20:38:57.010Z,18.37
2018-10-06T20:41:26.167Z,18.00
2018-10-06T20:43:55.298Z,17.50
2018-10-06T20:46:25.004Z,22.83
2018-10-06T20:48:54.077Z,22.57
2018-10-06T20:51:23.156Z,22.57
2018-10-06T20:53:52.270Z,23.23
2018-10-06T20:56:21.403Z,19.27
2018-10-06T20:58:50.500Z,16.40
2018-10-06T21:01:19.588Z,17.10
2018-10-06T21:03:49.143Z,16.33
2018-10-06T21:06:18.246Z,17.70
2018-10-06T21:08:47.345Z,19.90
2018-10-06T21:11:16.507Z,15.50
2018-10-06T21:13:45.610Z,17.97
2018-10-06T21:16:14.698Z,23.43
2018-10-06T21:18:43.972Z,21.87
2018-10-06T21:21:13.085Z,17.30
2018-10-06T21:23:42.178Z,18.50
2018-10-06T21:26:11.315Z,16.23
2018-10-06T21:28:40.453Z,17.80
2018-10-06T21:31:09.613Z,23.23
2018-10-06T21:33:38.634Z,15.57
2018-10-06T21:36:07.903Z,22.43
2018-10-06T21:38:37.024Z,16.50
2018-10-06T21:41:06.227Z,17.10
2018-10-06T21:43:35.366Z,16.50
2018-10-06T21:46:04.531Z,21.57
2018-10-06T21:48:33.931Z,16.10
2018-10-06T21:51:03.114Z,16.50
2018-10-06T21:53:32.209Z,16.03
2018-10-06T21:56:01.484Z,16.50
2018-10-06T21:58:31.166Z,19.93
2018-10-06T22:01:05.680Z,22.40
2018-10-06T22:03:35.323Z,20.70
2018-10-06T22:06:05.575Z,18.80
2018-10-06T22:08:35.478Z,16.90
2018-10-06T22:11:04.672Z,19.33
2018-10-06T22:13:33.787Z,22.00
2018-10-06T22:16:03.326Z,18.80
2018-10-06T22:18:32.709Z,18.60
2018-10-06T22:21:01.518Z,23.30
2018-10-06T22:23:31.102Z,19.20
2018-10-06T22:25:59.874Z,22.23
2018-10-06T22:28:29.038Z,18.63
2018-10-06T22:30:58.359Z,18.67
2018-10-06T22:33:27.510Z,20.90
2018-10-06T22:35:56.638Z,18.30
2018-10-06T22:38:25.730Z,17.43
2018-10-06T22:40:55.038Z,19.27
2018-10-06T22:43:23.759Z,17.90
2018-10-06T22:45:52.863Z,17.80
2018-10-06T22:48:22.082Z,19.70
2018-10-06T22:50:51.484Z,19.70
2018-10-06T22:53:20.302Z,20.47
2018-10-06T22:55:49.434Z,20.87
2018-10-06T22:58:18.542Z,18.70
2018-10-06T23:00:47.722Z,20.73
2018-10-06T23:03:17.054Z,16.80
2018-10-06T23:05:46.070Z,19.27
2018-10-06T23:08:15.221Z,19.87
2018-10-06T23:10:45.338Z,20.50
2018-10-06T23:13:14.458Z,30.73
2018-10-06T23:15:47.722Z,24.63
2018-10-06T23:18:16.836Z,20.70
2018-10-06T23:20:46.935Z,19.50
2018-10-06T23:23:16.046Z,19.10
2018-10-06T23:25:45.144Z,24.43
2018-10-06T23:28:14.249Z,31.70
2018-10-06T23:30:43.355Z,21.67
2018-10-06T23:33:12.534Z,21.87
2018-10-06T23:35:41.654Z,19.03
2018-10-06T23:38:10.817Z,23.47
2018-10-06T23:40:40.745Z,20.10
2018-10-06T23:43:10.013Z,24.40
2018-10-06T23:45:38.881Z,25.60
2018-10-06T23:48:08.582Z,18.87
2018-10-06T23:50:37.688Z,21.07
2018-10-06T23:53:06.810Z,23.83
2018-10-06T23:55:35.906Z,19.77
2018-10-06T23:58:05.003Z,22.53
